Time;durP1;ratioP1;P1;durP2;ratioP2;P2;SDS_P1;SDS_P2;PMS_P1;PMS_P2;Temp;Humidity;BMP_temperature;BMP_pressure;BME280_temperature;BME280_humidity;BME280_pressure;Samples;Min_cycle;Max_cycle;Signal;HPM_P1;HPM_P2
2021/05/13 08:26:26;;;;;;;69.88;66.88;;;;;;;;;;5090936;27;20532;-67
2021/05/13 08:28:53;;;;;;;80.65;77.15;;;;;;;;;;5090945;28;20191;-67
2021/05/13 08:31:19;;;;;;;92.95;88.78;;;;;;;;;;5090749;28;20175;-68
2021/05/13 08:33:45;;;;;;;103.75;99.20;;;;;;;;;;5089566;28;20168;-68
2021/05/13 08:36:11;;;;;;;107.15;102.45;;;;;;;;;;5090747;28;20176;-68
2021/05/13 08:38:37;;;;;;;116.30;111.15;;;;;;;;;;5090707;28;20248;-67
2021/05/13 08:41:03;;;;;;;119.05;113.75;;;;;;;;;;5090599;28;20164;-68
2021/05/13 08:43:30;;;;;;;113.65;108.60;;;;;;;;;;5090677;28;20164;-68
2021/05/13 08:45:57;;;;;;;115.20;109.90;;;;;;;;;;5090455;28;20199;-68
2021/05/13 09:04:41;;;;;;;81.15;77.60;;;;;;;;;;5090838;27;20545;-68
2021/05/13 09:07:13;;;;;;;84.68;81.00;;;;;;;;;;5090927;28;20164;-68
2021/05/13 09:09:39;;;;;;;94.65;90.50;;;;;;;;;;5090773;28;20156;-68
2021/05/13 09:12:05;;;;;;;97.68;93.30;;;;;;;;;;5090750;28;20182;-68
2021/05/13 09:14:32;;;;;;;99.18;94.88;;;;;;;;;;5089425;28;20263;-68
2021/05/13 09:17:01;;;;;;;105.05;100.45;;;;;;;;;;5090696;28;20250;-68
2021/05/13 09:19:28;;;;;;;107.32;102.57;;;;;;;;;;5090681;28;20172;-68
2021/05/13 09:21:58;;;;;;;111.63;106.63;;;;;;;;;;5090624;28;20195;-68
2021/05/13 09:24:42;;;;;;;104.07;99.55;;;;;;;;;;5090473;28;20229;-68
2021/05/13 09:27:15;;;;;;;110.78;105.93;;;;;;;;;;5090443;28;20247;-68
2021/05/13 09:46:33;;;;;;;88.82;84.95;;;;;;;;;;5090870;27;20548;-67
2021/05/13 09:48:59;;;;;;;84.47;80.82;;;;;;;;;;5089629;28;20578;-68
2021/05/13 09:51:27;;;;;;;102.40;97.90;;;;;;;;;;5089564;28;20589;-68
2021/05/13 09:54:12;;;;;;;102.93;98.40;;;;;;;;;;5090824;28;20254;-68
2021/05/13 09:56:58;;;;;;;92.30;88.20;;;;;;;;;;5090747;28;20164;-67
2021/05/13 09:59:28;;;;;;;110.03;105.15;;;;;;;;;;5090678;28;20163;-68
2021/05/13 10:01:58;;;;;;;122.47;117.03;;;;;;;;;;5090658;28;20172;-68
2021/05/13 10:04:24;;;;;;;105.13;100.53;;;;;;;;;;5090559;28;20241;-68
2021/05/13 10:06:50;;;;;;;110.55;105.70;;;;;;;;;;5090581;28;20164;-68
2021/05/13 10:09:17;;;;;;;107.78;103.03;;;;;;;;;;5090471;28;20192;-68
2021/05/13 10:11:44;;;;;;;118.70;113.45;;;;;;;;;;5090513;28;20172;-68
2021/05/13 10:14:11;;;;;;;119.72;114.28;;;;;;;;;;5090440;28;20164;-68
2021/05/13 10:29:26;;;;;;;77.50;74.15;;;;;;;;;;5090981;28;20541;-68
2021/05/13 10:32:02;;;;;;;90.22;85.90;;;;;;;;;;5090934;28;20624;-68
2021/05/13 10:34:47;;;;;;;92.70;88.57;;;;;;;;;;5090748;28;20290;-67
2021/05/13 10:37:18;;;;;;;105.63;100.78;;;;;;;;;;5090837;28;20207;-68
2021/05/13 10:40:02;;;;;;;107.03;102.30;;;;;;;;;;5090804;28;20178;-68
2021/05/13 10:42:29;;;;;;;110.53;105.68;;;;;;;;;;5090659;28;20171;-68
2021/05/13 10:44:55;;;;;;;120.80;115.47;;;;;;;;;;5090563;28;20164;-68
2021/05/13 10:47:28;;;;;;;120.28;115.00;;;;;;;;;;5090426;28;20196;-68
2021/05/13 10:49:54;;;;;;;127.03;121.38;;;;;;;;;;5090651;28;20164;-68
2021/05/13 10:52:38;;;;;;;130.13;124.38;;;;;;;;;;5089272;28;20168;-68
2021/05/13 10:55:05;;;;;;;133.32;127.40;;;;;;;;;;5090464;28;20199;-68
2021/05/13 10:57:54;;;;;;;155.27;148.30;;;;;;;;;;5090488;28;20641;-68
2021/05/13 11:00:21;;;;;;;171.40;163.60;;;;;;;;;;5083682;28;20663;-68
2021/05/13 11:02:48;;;;;;;168.55;160.98;;;;;;;;;;5090319;28;20624;-68
2021/05/13 11:05:23;;;;;;;191.30;182.57;;;;;;;;;;5090278;28;20167;-68
2021/05/13 11:07:49;;;;;;;200.57;191.63;;;;;;;;;;5090158;28;20187;-68
2021/05/13 11:10:15;;;;;;;220.80;210.90;;;;;;;;;;5090187;28;20164;-68
2021/05/13 11:12:41;;;;;;;242.07;230.98;;;;;;;;;;5090105;28;20160;-68
2021/05/13 11:15:15;;;;;;;253.50;242.15;;;;;;;;;;5090028;28;20220;-68
2021/05/13 11:17:46;;;;;;;253.40;241.93;;;;;;;;;;5090026;28;20164;-68
2021/05/13 11:20:19;;;;;;;272.95;260.67;;;;;;;;;;5089994;28;20168;-68
2021/05/13 11:22:52;;;;;;;269.27;257.17;;;;;;;;;;5089821;28;20184;-68
2021/05/13 11:25:18;;;;;;;245.23;234.13;;;;;;;;;;5089890;28;20175;-68
2021/05/13 11:27:44;;;;;;;278.70;266.05;;;;;;;;;;5089649;28;20573;-68
2021/05/13 11:30:10;;;;;;;289.42;276.15;;;;;;;;;;5089800;28;20172;-68
2021/05/13 11:32:36;;;;;;;292.80;279.45;;;;;;;;;;5089704;28;20159;-68
2021/05/13 11:35:03;;;;;;;303.52;289.73;;;;;;;;;;5089706;28;20247;-68
2021/05/13 11:37:44;;;;;;;271.92;259.48;;;;;;;;;;5089634;28;20176;-68
2021/05/13 11:40:21;;;;;;;263.55;251.70;;;;;;;;;;5078654;28;20164;-68
2021/05/13 11:42:47;;;;;;;270.15;258.00;;;;;;;;;;5076051;28;20168;-68
2021/05/13 11:45:17;;;;;;;271.83;259.48;;;;;;;;;;5075895;28;20171;-68
2021/05/13 11:47:43;;;;;;;262.80;250.98;;;;;;;;;;5074883;28;20207;-68
2021/05/13 11:50:10;;;;;;;286.63;273.45;;;;;;;;;;5075940;28;20634;-68
2021/05/13 11:52:56;;;;;;;271.23;258.92;;;;;;;;;;5075923;28;20747;-68
2021/05/13 11:55:31;;;;;;;261.85;250.07;;;;;;;;;;5074507;28;20529;-68
2021/05/13 11:57:57;;;;;;;281.60;268.85;;;;;;;;;;5075797;28;20277;-68
2021/05/13 12:00:23;;;;;;;273.98;261.63;;;;;;;;;;5075775;28;20199;-68
2021/05/13 12:02:49;;;;;;;291.92;278.70;;;;;;;;;;5074422;28;20172;-68
2021/05/13 12:05:15;;;;;;;284.80;271.67;;;;;;;;;;5074379;28;20574;-68
2021/05/13 12:07:43;;;;;;;283.13;270.33;;;;;;;;;;5074283;28;20214;-68
2021/05/13 12:10:09;;;;;;;269.85;257.73;;;;;;;;;;5075577;28;20169;-68
2021/05/13 12:12:35;;;;;;;293.40;280.13;;;;;;;;;;5075517;28;20226;-68
2021/05/13 12:15:12;;;;;;;318.77;304.15;;;;;;;;;;5075521;28;20168;-68
2021/05/13 12:17:38;;;;;;;319.60;304.85;;;;;;;;;;5075514;28;20176;-68
2021/05/13 12:20:04;;;;;;;338.17;322.50;;;;;;;;;;5075382;28;20186;-68
2021/05/13 12:22:30;;;;;;;343.35;327.38;;;;;;;;;;5075236;28;20196;-68
2021/05/13 12:24:56;;;;;;;308.30;293.85;;;;;;;;;;5075319;28;20505;-68
2021/05/13 12:27:23;;;;;;;341.73;325.67;;;;;;;;;;5075031;28;20276;-68
2021/05/13 12:29:51;;;;;;;294.35;280.88;;;;;;;;;;5075182;28;20168;-68
2021/05/13 12:32:29;;;;;;;306.80;292.75;;;;;;;;;;5075183;28;20156;-68
2021/05/13 12:34:55;;;;;;;282.75;269.92;;;;;;;;;;5075093;28;20160;-68
2021/05/13 12:37:22;;;;;;;310.48;296.27;;;;;;;;;;5075038;28;20260;-68
2021/05/13 12:39:49;;;;;;;314.15;299.65;;;;;;;;;;5074984;28;20172;-68
2021/05/13 12:42:24;;;;;;;329.85;314.60;;;;;;;;;;5074946;28;20245;-68
2021/05/13 12:44:50;;;;;;;330.58;315.38;;;;;;;;;;5073626;28;20646;-68
2021/05/13 12:47:16;;;;;;;336.40;320.83;;;;;;;;;;5074724;28;20203;-68
2021/05/13 12:49:43;;;;;;;333.05;317.48;;;;;;;;;;5074841;28;20648;-68
2021/05/13 12:52:10;;;;;;;374.67;356.98;;;;;;;;;;5073731;28;20172;-68
2021/05/13 12:54:39;;;;;;;361.02;344.08;;;;;;;;;;5073411;28;20179;-68
2021/05/13 12:57:12;;;;;;;345.10;329.00;;;;;;;;;;5074636;28;20168;-68
2021/05/13 12:59:39;;;;;;;352.98;336.45;;;;;;;;;;5074618;28;20168;-68
2021/05/13 13:02:05;;;;;;;360.33;343.40;;;;;;;;;;5074471;28;20172;-68
2021/05/13 13:04:47;;;;;;;355.85;339.20;;;;;;;;;;5074464;28;20168;-68
2021/05/13 13:07:13;;;;;;;366.23;349.00;;;;;;;;;;5074396;28;20598;-68
2021/05/13 13:09:39;;;;;;;347.90;331.65;;;;;;;;;;5074393;28;20171;-68
2021/05/13 13:12:10;;;;;;;328.13;312.85;;;;;;;;;;5074333;28;20183;-68
2021/05/13 13:14:45;;;;;;;324.75;309.80;;;;;;;;;;5074238;28;20160;-68
2021/05/13 13:17:19;;;;;;;346.10;330.02;;;;;;;;;;5074257;28;20168;-68
2021/05/13 13:20:01;;;;;;;353.98;337.35;;;;;;;;;;5072859;28;20221;-68
2021/05/13 13:22:27;;;;;;;350.95;334.50;;;;;;;;;;5074074;28;20186;-68
2021/05/13 13:25:10;;;;;;;347.92;331.70;;;;;;;;;;5074113;28;20593;-68
2021/05/13 13:27:38;;;;;;;356.73;339.95;;;;;;;;;;5073817;28;20219;-68
2021/05/13 13:30:06;;;;;;;363.00;345.88;;;;;;;;;;5074061;28;20168;-68
2021/05/13 13:32:32;;;;;;;356.02;339.33;;;;;;;;;;5073970;28;20247;-68
2021/05/13 13:35:04;;;;;;;374.27;356.52;;;;;;;;;;5073941;28;20175;-68
2021/05/13 13:37:30;;;;;;;363.50;346.23;;;;;;;;;;5073842;28;20630;-68
2021/05/13 13:39:56;;;;;;;359.98;343.08;;;;;;;;;;5073807;28;20198;-68
2021/05/13 13:42:23;;;;;;;376.42;358.52;;;;;;;;;;5074000;28;20164;-68
2021/05/13 15:27:06;;;;;;;128.10;122.43;;;;;;;;;;5090951;28;20597;-67
2021/05/13 15:29:32;;;;;;;140.93;134.63;;;;;;;;;;5090936;28;20262;-68
2021/05/13 15:31:59;;;;;;;159.55;152.35;;;;;;;;;;5090801;28;20258;-68
2021/05/13 15:34:25;;;;;;;175.07;167.15;;;;;;;;;;5091074;28;20523;-67
2021/05/13 15:36:51;;;;;;;193.88;185.18;;;;;;;;;;5090672;28;20210;-68
2021/05/13 15:39:17;;;;;;;223.23;213.23;;;;;;;;;;5090374;28;20250;-68
2021/05/13 15:41:43;;;;;;;239.63;228.60;;;;;;;;;;5090271;28;20222;-68
2021/05/13 15:44:09;;;;;;;247.93;236.77;;;;;;;;;;5090640;28;20167;-68
2021/05/13 15:46:35;;;;;;;273.58;260.98;;;;;;;;;;5090491;28;20195;-68
2021/05/13 15:49:01;;;;;;;282.52;269.67;;;;;;;;;;5090555;28;20686;-67
